AFR427 LIPZ-EGPH
Flight info
| Callsign | AFR427 |
|---|---|
| Flight time | 2h 12m |
| Altitude | 40000 |
| Route | ROKIB DCT BRENO DCT KONIN M726 MAH DCT ASPAT DCT MASEK L604 MAPOX DCT ABILU DCT SOGPO DCT BERGI DCT MIMVA L602 NALAX DCT ERKIT DCT AGPED |
| Aircraft | A359/H-SDE2E3GHIJ3J4J5LM1ORWXY/LB1D1 |
Departure
| Time | 2026-04-23 18:54 |
|---|---|
| Airport | Venice Marco Polo Airport (LIPZ) |
Arrival
| Time | 2026-04-23 21:06 |
|---|---|
| Airport | Edinburgh Airport (EGPH) |
| Time | Latitude | Longitude | Altitude | Speed | Heading |
|---|---|---|---|---|---|
| 2026-04-23 18:03 | 45.50428 | 12.34244 | 22 ft | 0 kts | 268° |
| 2026-04-23 18:39 | 45.50429 | 12.34274 | 24 ft | 4 kts | 265° |
| 2026-04-23 18:40 | 45.50431 | 12.34308 | 26 ft | 3 kts | 266° |
| 2026-04-23 18:40 | 45.50428 | 12.34339 | 26 ft | 4 kts | 324° |
| 2026-04-23 18:40 | 45.50405 | 12.34348 | 26 ft | 4 kts | 359° |
| 2026-04-23 18:40 | 45.50394 | 12.34348 | 26 ft | 5 kts | 358° |
| 2026-04-23 18:44 | 45.50389 | 12.34348 | 26 ft | 2 kts | 358° |
| 2026-04-23 18:45 | 45.50374 | 12.34349 | 26 ft | 2 kts | 358° |
| 2026-04-23 18:45 | 45.50373 | 12.34349 | 26 ft | 0 kts | 358° |
| 2026-04-23 18:46 | 45.50384 | 12.34348 | 26 ft | 7 kts | 358° |
| 2026-04-23 18:46 | 45.50443 | 12.34345 | 24 ft | 0 kts | 358° |
| 2026-04-23 18:46 | 45.50444 | 12.34345 | 24 ft | 0 kts | 358° |
| 2026-04-23 18:47 | 45.50453 | 12.34345 | 26 ft | 3 kts | 358° |
| 2026-04-23 18:47 | 45.50489 | 12.34343 | 25 ft | 7 kts | 358° |
| 2026-04-23 18:47 | 45.50557 | 12.34375 | 24 ft | 14 kts | 35° |
| 2026-04-23 18:47 | 45.50602 | 12.34504 | 25 ft | 18 kts | 84° |
| 2026-04-23 18:48 | 45.50606 | 12.34702 | 22 ft | 22 kts | 88° |
| 2026-04-23 18:48 | 45.50660 | 12.34821 | 27 ft | 13 kts | 42° |
| 2026-04-23 18:48 | 45.50748 | 12.34936 | 25 ft | 16 kts | 43° |
| 2026-04-23 18:48 | 45.50758 | 12.34950 | 25 ft | 6 kts | 43° |
| 2026-04-23 18:49 | 45.50851 | 12.35072 | 23 ft | 25 kts | 43° |
| 2026-04-23 18:49 | 45.50902 | 12.35135 | 23 ft | 0 kts | 40° |
| 2026-04-23 18:49 | 45.50902 | 12.35136 | 23 ft | 0 kts | 40° |
| 2026-04-23 18:49 | 45.50903 | 12.35136 | 23 ft | 0 kts | 40° |
| 2026-04-23 18:50 | 45.50905 | 12.35139 | 25 ft | 1 kts | 40° |
| 2026-04-23 18:51 | 45.50926 | 12.35166 | 23 ft | 15 kts | 47° |
| 2026-04-23 18:51 | 45.50987 | 12.35383 | 25 ft | 28 kts | 72° |
| 2026-04-23 18:51 | 45.51117 | 12.35617 | 24 ft | 32 kts | 43° |
| 2026-04-23 18:51 | 45.51289 | 12.35835 | 25 ft | 35 kts | 41° |
| 2026-04-23 18:52 | 45.51476 | 12.36072 | 25 ft | 37 kts | 41° |
| 2026-04-23 18:52 | 45.51672 | 12.36330 | 26 ft | 39 kts | 51° |
| 2026-04-23 18:52 | 45.51680 | 12.36492 | 23 ft | 9 kts | 117° |
| 2026-04-23 18:52 | 45.51638 | 12.36563 | 24 ft | 8 kts | 142° |
| 2026-04-23 18:53 | 45.51585 | 12.36563 | 22 ft | 8 kts | 217° |
| 2026-04-23 18:53 | 45.51548 | 12.36518 | 25 ft | 0 kts | 221° |
| 2026-04-23 18:53 | 45.51547 | 12.36518 | 22 ft | 0 kts | 221° |
| 2026-04-23 18:53 | 45.51542 | 12.36511 | 22 ft | 6 kts | 221° |
| 2026-04-23 18:54 | 45.51291 | 12.36192 | 23 ft | 94 kts | 223° |
| 2026-04-23 18:54 | 45.50604 | 12.35308 | 27 ft | 169 kts | 221° |
| 2026-04-23 18:54 | 45.49659 | 12.34169 | 799 ft | 178 kts | 222° |
| 2026-04-23 18:54 | 45.48717 | 12.32968 | 1720 ft | 190 kts | 225° |
| 2026-04-23 18:55 | 45.47723 | 12.31644 | 2473 ft | 201 kts | 225° |
| 2026-04-23 18:55 | 45.46675 | 12.30268 | 3291 ft | 209 kts | 224° |
| 2026-04-23 18:55 | 45.45583 | 12.28859 | 4098 ft | 215 kts | 224° |
| 2026-04-23 18:55 | 45.44466 | 12.27430 | 4859 ft | 222 kts | 223° |
| 2026-04-23 18:56 | 45.43695 | 12.26442 | 5340 ft | 228 kts | 224° |
| 2026-04-23 18:56 | 45.42095 | 12.24385 | 6398 ft | 236 kts | 223° |
| 2026-04-23 18:56 | 45.40860 | 12.22803 | 7213 ft | 241 kts | 223° |
| 2026-04-23 18:56 | 45.39657 | 12.21106 | 8006 ft | 247 kts | 232° |
| 2026-04-23 18:57 | 45.38969 | 12.18893 | 8816 ft | 247 kts | 265° |
| 2026-04-23 18:57 | 45.39194 | 12.16528 | 9721 ft | 242 kts | 298° |
| 2026-04-23 18:57 | 45.40137 | 12.14588 | 10585 ft | 238 kts | 316° |
| 2026-04-23 18:57 | 45.41231 | 12.12788 | 11400 ft | 246 kts | 312° |
| 2026-04-23 18:58 | 45.41943 | 12.10570 | 12295 ft | 260 kts | 284° |
| 2026-04-23 18:58 | 45.41808 | 12.07920 | 12933 ft | 286 kts | 254° |
| 2026-04-23 18:58 | 45.40989 | 12.05184 | 13323 ft | 315 kts | 245° |
| 2026-04-23 18:58 | 45.39974 | 12.02271 | 13717 ft | 341 kts | 245° |
| 2026-04-23 18:59 | 45.39210 | 11.98989 | 14081 ft | 361 kts | 265° |
| 2026-04-23 18:59 | 45.39431 | 11.95442 | 14705 ft | 362 kts | 291° |
| 2026-04-23 18:59 | 45.40646 | 11.92357 | 15529 ft | 357 kts | 315° |
| 2026-04-23 18:59 | 45.42531 | 11.90090 | 16378 ft | 356 kts | 328° |
| 2026-04-23 19:00 | 45.44565 | 11.88167 | 17178 ft | 359 kts | 333° |
| 2026-04-23 19:00 | 45.46864 | 11.86802 | 18030 ft | 359 kts | 348° |
| 2026-04-23 19:00 | 45.49338 | 11.86307 | 18833 ft | 361 kts | 357° |
| 2026-04-23 19:00 | 45.51855 | 11.86061 | 19615 ft | 365 kts | 358° |
| 2026-04-23 19:01 | 45.54405 | 11.85819 | 20412 ft | 369 kts | 358° |
| 2026-04-23 19:01 | 45.56976 | 11.85558 | 21243 ft | 372 kts | 357° |
| 2026-04-23 19:01 | 45.59574 | 11.85282 | 22055 ft | 377 kts | 357° |
| 2026-04-23 19:01 | 45.62210 | 11.84996 | 22847 ft | 382 kts | 357° |
| 2026-04-23 19:02 | 45.63971 | 11.84802 | 23382 ft | 386 kts | 357° |
| 2026-04-23 19:02 | 45.67531 | 11.84407 | 24328 ft | 391 kts | 357° |
| 2026-04-23 19:02 | 45.70255 | 11.84091 | 25034 ft | 395 kts | 356° |
| 2026-04-23 19:02 | 45.72965 | 11.83313 | 25754 ft | 402 kts | 344° |
| 2026-04-23 19:03 | 45.75548 | 11.81752 | 26448 ft | 407 kts | 338° |
| 2026-04-23 19:03 | 45.78112 | 11.79977 | 27131 ft | 410 kts | 338° |
| 2026-04-23 19:03 | 45.80660 | 11.78189 | 28164 ft | 404 kts | 338° |
| 2026-04-23 19:03 | 45.83158 | 11.76439 | 29357 ft | 395 kts | 339° |
| 2026-04-23 19:04 | 45.85593 | 11.74739 | 30437 ft | 387 kts | 340° |
| 2026-04-23 19:04 | 45.87978 | 11.73085 | 31122 ft | 385 kts | 340° |
| 2026-04-23 19:04 | 45.90387 | 11.71421 | 31732 ft | 385 kts | 340° |
| 2026-04-23 19:04 | 45.92822 | 11.69860 | 32319 ft | 381 kts | 345° |
| 2026-04-23 19:05 | 45.95304 | 11.68729 | 32948 ft | 375 kts | 351° |
| 2026-04-23 19:05 | 45.97837 | 11.67841 | 33570 ft | 373 kts | 354° |
| 2026-04-23 19:05 | 46.00371 | 11.67066 | 34076 ft | 372 kts | 355° |
| 2026-04-23 19:05 | 46.02909 | 11.66339 | 34560 ft | 371 kts | 355° |
| 2026-04-23 19:06 | 46.05429 | 11.65629 | 35058 ft | 370 kts | 354° |
| 2026-04-23 19:06 | 46.07949 | 11.64915 | 35555 ft | 369 kts | 354° |
| 2026-04-23 19:06 | 46.10465 | 11.64191 | 35966 ft | 367 kts | 354° |
| 2026-04-23 19:06 | 46.12979 | 11.63454 | 36395 ft | 366 kts | 353° |
| 2026-04-23 19:07 | 46.15413 | 11.62732 | 36772 ft | 365 kts | 353° |
| 2026-04-23 19:07 | 46.17904 | 11.61985 | 37146 ft | 366 kts | 352° |
| 2026-04-23 19:07 | 46.20419 | 11.61231 | 37353 ft | 372 kts | 352° |
| 2026-04-23 19:07 | 46.22969 | 11.60468 | 37507 ft | 378 kts | 352° |
| 2026-04-23 19:08 | 46.25564 | 11.59692 | 37651 ft | 385 kts | 352° |
| 2026-04-23 19:08 | 46.28207 | 11.58901 | 37822 ft | 391 kts | 352° |
| 2026-04-23 19:08 | 46.30893 | 11.58096 | 38003 ft | 398 kts | 351° |
| 2026-04-23 19:08 | 46.33626 | 11.57276 | 38149 ft | 404 kts | 351° |
| 2026-04-23 19:09 | 46.36351 | 11.56456 | 38365 ft | 410 kts | 351° |
| 2026-04-23 19:09 | 46.39166 | 11.55607 | 38492 ft | 416 kts | 352° |
| 2026-04-23 19:09 | 46.42025 | 11.54743 | 38581 ft | 423 kts | 352° |
| 2026-04-23 19:09 | 46.44923 | 11.53869 | 38720 ft | 429 kts | 352° |
| 2026-04-23 19:10 | 46.47855 | 11.52983 | 38834 ft | 434 kts | 352° |
| 2026-04-23 19:10 | 46.50834 | 11.52083 | 38950 ft | 440 kts | 351° |
| 2026-04-23 19:10 | 46.53842 | 11.51173 | 39061 ft | 445 kts | 351° |
| 2026-04-23 19:10 | 46.56894 | 11.50248 | 39165 ft | 450 kts | 351° |
| 2026-04-23 19:11 | 46.59975 | 11.49313 | 39285 ft | 455 kts | 351° |
| 2026-04-23 19:11 | 46.66185 | 11.47423 | 39589 ft | 461 kts | 351° |
| 2026-04-23 19:11 | 46.69328 | 11.46464 | 39875 ft | 461 kts | 351° |
| 2026-04-23 19:12 | 46.71450 | 11.45815 | 40058 ft | 461 kts | 351° |
| 2026-04-23 19:12 | 46.75597 | 11.44546 | 40162 ft | 461 kts | 351° |
| 2026-04-23 19:12 | 46.78741 | 11.43583 | 40185 ft | 462 kts | 351° |
| 2026-04-23 19:13 | 46.85048 | 11.41654 | 40196 ft | 463 kts | 351° |
| 2026-04-23 19:13 | 46.91355 | 11.39718 | 40209 ft | 463 kts | 351° |
| 2026-04-23 19:14 | 46.96588 | 11.38177 | 40200 ft | 460 kts | 355° |
| 2026-04-23 19:14 | 47.02928 | 11.37615 | 40220 ft | 457 kts | 1° |
| 2026-04-23 19:15 | 47.10303 | 11.37500 | 40225 ft | 456 kts | 2° |
| 2026-04-23 19:15 | 47.15620 | 11.37461 | 40238 ft | 457 kts | 2° |
| 2026-04-23 19:16 | 47.22017 | 11.37423 | 40238 ft | 467 kts | 2° |
| 2026-04-23 19:16 | 47.28525 | 11.37372 | 40233 ft | 470 kts | 2° |
| 2026-04-23 19:17 | 47.38317 | 11.37273 | 40241 ft | 470 kts | 2° |
| 2026-04-23 19:17 | 47.44859 | 11.37208 | 40238 ft | 470 kts | 2° |
| 2026-04-23 19:18 | 47.51393 | 11.37142 | 40245 ft | 470 kts | 2° |
| 2026-04-23 19:18 | 47.57889 | 11.37078 | 40263 ft | 470 kts | 2° |
| 2026-04-23 19:19 | 47.67696 | 11.36983 | 40262 ft | 471 kts | 2° |
| 2026-04-23 19:20 | 47.77526 | 11.36886 | 40261 ft | 472 kts | 2° |
| 2026-04-23 19:20 | 47.84091 | 11.36820 | 40267 ft | 472 kts | 2° |
| 2026-04-23 19:21 | 47.93888 | 11.36288 | 40266 ft | 473 kts | 359° |
| 2026-04-23 19:22 | 48.00456 | 11.35613 | 40268 ft | 473 kts | 359° |
| 2026-04-23 19:22 | 48.10301 | 11.34589 | 40260 ft | 474 kts | 356° |
| 2026-04-23 19:23 | 48.16845 | 11.33272 | 40264 ft | 475 kts | 354° |
| 2026-04-23 19:24 | 48.26623 | 11.30688 | 40267 ft | 479 kts | 346° |
| 2026-04-23 19:24 | 48.35952 | 11.25342 | 40267 ft | 482 kts | 341° |
| 2026-04-23 19:25 | 48.48348 | 11.17599 | 40266 ft | 483 kts | 341° |
| 2026-04-23 19:26 | 48.57656 | 11.11788 | 40244 ft | 483 kts | 341° |
| 2026-04-23 19:27 | 48.73115 | 11.02110 | 40244 ft | 483 kts | 341° |
| 2026-04-23 19:28 | 48.85511 | 10.94300 | 40262 ft | 483 kts | 340° |
| 2026-04-23 19:29 | 48.94817 | 10.88410 | 40292 ft | 483 kts | 340° |
| 2026-04-23 19:30 | 49.04088 | 10.82519 | 40296 ft | 485 kts | 340° |
| 2026-04-23 19:31 | 49.13430 | 10.76557 | 40312 ft | 485 kts | 340° |
| 2026-04-23 19:31 | 49.19650 | 10.72573 | 40311 ft | 486 kts | 340° |
| 2026-04-23 19:32 | 49.25832 | 10.68363 | 40244 ft | 487 kts | 338° |
| 2026-04-23 19:32 | 49.31921 | 10.63927 | 40257 ft | 488 kts | 337° |
| 2026-04-23 19:33 | 49.38057 | 10.59464 | 40256 ft | 488 kts | 338° |
| 2026-04-23 19:33 | 49.47240 | 10.52853 | 40248 ft | 488 kts | 338° |
| 2026-04-23 19:34 | 49.53369 | 10.48446 | 40246 ft | 488 kts | 338° |
| 2026-04-23 19:35 | 49.62425 | 10.41907 | 40251 ft | 487 kts | 338° |
| 2026-04-23 19:35 | 49.68572 | 10.37452 | 40255 ft | 489 kts | 338° |
| 2026-04-23 19:36 | 49.74737 | 10.32972 | 40257 ft | 490 kts | 337° |
| 2026-04-23 19:36 | 49.80888 | 10.28487 | 40265 ft | 488 kts | 337° |
| 2026-04-23 19:37 | 49.87030 | 10.23996 | 40265 ft | 488 kts | 337° |
| 2026-04-23 19:37 | 49.93107 | 10.19541 | 40264 ft | 488 kts | 337° |
| 2026-04-23 19:38 | 49.99248 | 10.15027 | 40266 ft | 488 kts | 337° |
| 2026-04-23 19:38 | 50.05375 | 10.10510 | 40268 ft | 487 kts | 337° |
| 2026-04-23 19:39 | 50.11516 | 10.05971 | 40271 ft | 490 kts | 337° |
| 2026-04-23 19:39 | 50.17616 | 10.01449 | 40270 ft | 491 kts | 337° |
| 2026-04-23 19:40 | 50.23785 | 9.96861 | 40268 ft | 491 kts | 337° |
| 2026-04-23 19:40 | 50.29920 | 9.92285 | 40273 ft | 490 kts | 337° |
| 2026-04-23 19:41 | 50.36070 | 9.87684 | 40271 ft | 490 kts | 336° |
| 2026-04-23 19:41 | 50.42191 | 9.83093 | 40276 ft | 489 kts | 336° |
| 2026-04-23 19:42 | 50.48286 | 9.78510 | 40273 ft | 489 kts | 336° |
| 2026-04-23 19:42 | 50.54396 | 9.73900 | 40283 ft | 490 kts | 336° |
| 2026-04-23 19:43 | 50.60541 | 9.69252 | 40283 ft | 491 kts | 336° |
| 2026-04-23 19:43 | 50.66692 | 9.64584 | 40264 ft | 491 kts | 336° |
| 2026-04-23 19:44 | 50.72545 | 9.59149 | 40263 ft | 494 kts | 323° |
| 2026-04-23 19:44 | 50.77364 | 9.51435 | 40286 ft | 498 kts | 313° |
| 2026-04-23 19:45 | 50.81802 | 9.43021 | 40279 ft | 498 kts | 311° |
| 2026-04-23 19:45 | 50.86173 | 9.34491 | 40275 ft | 500 kts | 310° |
| 2026-04-23 19:46 | 50.90561 | 9.25943 | 40269 ft | 500 kts | 311° |
| 2026-04-23 19:46 | 50.94945 | 9.17429 | 40272 ft | 500 kts | 311° |
| 2026-04-23 19:47 | 50.99312 | 9.08935 | 40270 ft | 500 kts | 310° |
| 2026-04-23 19:47 | 51.03682 | 9.00411 | 40272 ft | 499 kts | 310° |
| 2026-04-23 19:48 | 51.07831 | 8.91543 | 40270 ft | 500 kts | 305° |
| 2026-04-23 19:48 | 51.11615 | 8.82308 | 40278 ft | 501 kts | 304° |
| 2026-04-23 19:49 | 51.15335 | 8.72936 | 40285 ft | 501 kts | 303° |
| 2026-04-23 19:49 | 51.19010 | 8.63644 | 40291 ft | 501 kts | 303° |
| 2026-04-23 19:50 | 51.22727 | 8.54254 | 40294 ft | 501 kts | 303° |
| 2026-04-23 19:50 | 51.26433 | 8.44875 | 40300 ft | 502 kts | 303° |
| 2026-04-23 19:51 | 51.30151 | 8.35427 | 40303 ft | 503 kts | 304° |
| 2026-04-23 19:51 | 51.33859 | 8.25979 | 40304 ft | 504 kts | 303° |
| 2026-04-23 19:52 | 51.37550 | 8.16537 | 40309 ft | 503 kts | 303° |
| 2026-04-23 19:52 | 51.41230 | 8.07086 | 40302 ft | 502 kts | 303° |
| 2026-04-23 19:53 | 51.44913 | 7.97591 | 40321 ft | 501 kts | 302° |
| 2026-04-23 19:53 | 51.48581 | 7.88098 | 40322 ft | 501 kts | 302° |
| 2026-04-23 19:54 | 51.52245 | 7.78584 | 40318 ft | 501 kts | 302° |
| 2026-04-23 19:54 | 51.55889 | 7.69086 | 40317 ft | 501 kts | 302° |
| 2026-04-23 19:55 | 51.59535 | 7.59549 | 40318 ft | 500 kts | 302° |
| 2026-04-23 19:55 | 51.63129 | 7.50110 | 40320 ft | 500 kts | 302° |
| 2026-04-23 19:56 | 51.66755 | 7.40552 | 40328 ft | 500 kts | 302° |
| 2026-04-23 19:56 | 51.70358 | 7.31019 | 40338 ft | 500 kts | 302° |
| 2026-04-23 19:57 | 51.73970 | 7.21428 | 40341 ft | 501 kts | 301° |
| 2026-04-23 19:57 | 51.77573 | 7.11824 | 40350 ft | 502 kts | 301° |
| 2026-04-23 19:58 | 51.81178 | 7.02178 | 40348 ft | 502 kts | 301° |
| 2026-04-23 19:58 | 51.84736 | 6.92623 | 40353 ft | 501 kts | 301° |
| 2026-04-23 19:59 | 51.88327 | 6.82943 | 40361 ft | 501 kts | 301° |
| 2026-04-23 19:59 | 51.91907 | 6.73255 | 40361 ft | 502 kts | 301° |
| 2026-04-23 20:00 | 51.95490 | 6.63521 | 40364 ft | 503 kts | 300° |
| 2026-04-23 20:00 | 51.99040 | 6.53838 | 40366 ft | 503 kts | 300° |
| 2026-04-23 20:01 | 52.02607 | 6.44073 | 40370 ft | 503 kts | 300° |
| 2026-04-23 20:01 | 52.06171 | 6.34282 | 40369 ft | 503 kts | 300° |
| 2026-04-23 20:02 | 52.09724 | 6.24481 | 40372 ft | 503 kts | 300° |
| 2026-04-23 20:02 | 52.13254 | 6.14703 | 40372 ft | 503 kts | 300° |
| 2026-04-23 20:03 | 52.16763 | 6.04946 | 40375 ft | 502 kts | 300° |
| 2026-04-23 20:03 | 52.20275 | 5.95144 | 40374 ft | 502 kts | 299° |
| 2026-04-23 20:04 | 52.23790 | 5.85295 | 40377 ft | 502 kts | 299° |
| 2026-04-23 20:04 | 52.27283 | 5.75469 | 40379 ft | 502 kts | 299° |
| 2026-04-23 20:05 | 52.30781 | 5.65590 | 40387 ft | 502 kts | 299° |
| 2026-04-23 20:05 | 52.34250 | 5.55756 | 40400 ft | 503 kts | 299° |
| 2026-04-23 20:06 | 52.37731 | 5.45847 | 40405 ft | 503 kts | 299° |
| 2026-04-23 20:06 | 52.41198 | 5.35942 | 40400 ft | 504 kts | 298° |
| 2026-04-23 20:07 | 52.44673 | 5.25970 | 40399 ft | 504 kts | 298° |
| 2026-04-23 20:07 | 52.48142 | 5.15980 | 40402 ft | 504 kts | 298° |
| 2026-04-23 20:08 | 52.51600 | 5.05978 | 40403 ft | 504 kts | 298° |
| 2026-04-23 20:08 | 52.55012 | 4.96073 | 40398 ft | 504 kts | 298° |
| 2026-04-23 20:09 | 52.58453 | 4.86041 | 40400 ft | 504 kts | 297° |
| 2026-04-23 20:09 | 52.61872 | 4.76030 | 40399 ft | 504 kts | 297° |
| 2026-04-23 20:10 | 52.64719 | 4.67667 | 40396 ft | 504 kts | 297° |
| 2026-04-23 20:10 | 52.68677 | 4.55992 | 40405 ft | 504 kts | 297° |
| 2026-04-23 20:11 | 52.72081 | 4.45908 | 40404 ft | 503 kts | 297° |
| 2026-04-23 20:11 | 52.75473 | 4.35817 | 40415 ft | 503 kts | 297° |
| 2026-04-23 20:12 | 52.78855 | 4.25713 | 40409 ft | 503 kts | 297° |
| 2026-04-23 20:12 | 52.82218 | 4.15628 | 40421 ft | 503 kts | 297° |
| 2026-04-23 20:13 | 52.85559 | 4.05567 | 40419 ft | 503 kts | 297° |
| 2026-04-23 20:13 | 52.88904 | 3.95450 | 40427 ft | 503 kts | 297° |
| 2026-04-23 20:14 | 52.92260 | 3.85261 | 40424 ft | 504 kts | 297° |
| 2026-04-23 20:14 | 52.95606 | 3.75058 | 40429 ft | 504 kts | 296° |
| 2026-04-23 20:15 | 52.98940 | 3.64852 | 40426 ft | 503 kts | 296° |
| 2026-04-23 20:15 | 53.02224 | 3.54755 | 40428 ft | 502 kts | 296° |
| 2026-04-23 20:16 | 53.05480 | 3.44484 | 40422 ft | 502 kts | 292° |
| 2026-04-23 20:16 | 53.08285 | 3.33910 | 40413 ft | 502 kts | 290° |
| 2026-04-23 20:17 | 53.10960 | 3.23185 | 40417 ft | 502 kts | 290° |
| 2026-04-23 20:17 | 53.13603 | 3.12448 | 40421 ft | 502 kts | 290° |
| 2026-04-23 20:18 | 53.16246 | 3.01712 | 40435 ft | 502 kts | 290° |
| 2026-04-23 20:18 | 53.18874 | 2.91020 | 40438 ft | 502 kts | 290° |
| 2026-04-23 20:19 | 53.21514 | 2.80238 | 40441 ft | 502 kts | 289° |
| 2026-04-23 20:19 | 53.24130 | 2.69498 | 40431 ft | 501 kts | 289° |
| 2026-04-23 20:20 | 53.26747 | 2.58702 | 40436 ft | 501 kts | 289° |
| 2026-04-23 20:20 | 53.29343 | 2.47936 | 40439 ft | 502 kts | 289° |
| 2026-04-23 20:21 | 53.31939 | 2.37117 | 40446 ft | 502 kts | 289° |
| 2026-04-23 20:21 | 53.34501 | 2.26388 | 40446 ft | 502 kts | 289° |
| 2026-04-23 20:22 | 53.37080 | 2.15533 | 40456 ft | 502 kts | 289° |
| 2026-04-23 20:22 | 53.39639 | 2.04706 | 40458 ft | 502 kts | 289° |
| 2026-04-23 20:23 | 53.42202 | 1.93811 | 40460 ft | 503 kts | 289° |
| 2026-04-23 20:23 | 53.44736 | 1.82981 | 40460 ft | 503 kts | 289° |
| 2026-04-23 20:24 | 53.47280 | 1.72056 | 40459 ft | 503 kts | 289° |
| 2026-04-23 20:24 | 53.49808 | 1.61144 | 40463 ft | 503 kts | 289° |
| 2026-04-23 20:25 | 53.52332 | 1.50190 | 40466 ft | 503 kts | 289° |
| 2026-04-23 20:25 | 53.54847 | 1.39216 | 40465 ft | 504 kts | 289° |
| 2026-04-23 20:26 | 53.57359 | 1.28206 | 40468 ft | 504 kts | 289° |
| 2026-04-23 20:26 | 53.59835 | 1.17292 | 40468 ft | 504 kts | 289° |
| 2026-04-23 20:27 | 53.62328 | 1.06249 | 40468 ft | 504 kts | 289° |
| 2026-04-23 20:27 | 53.64798 | 0.95246 | 40468 ft | 505 kts | 289° |
| 2026-04-23 20:28 | 53.67273 | 0.84164 | 40471 ft | 505 kts | 289° |
| 2026-04-23 20:28 | 53.69729 | 0.73108 | 40473 ft | 505 kts | 289° |
| 2026-04-23 20:29 | 53.72168 | 0.62072 | 40473 ft | 505 kts | 288° |
| 2026-04-23 20:29 | 53.74603 | 0.50995 | 40478 ft | 505 kts | 289° |
| 2026-04-23 20:30 | 53.77033 | 0.39878 | 40474 ft | 504 kts | 289° |
| 2026-04-23 20:30 | 53.80642 | 0.23263 | 40476 ft | 503 kts | 288° |
| 2026-04-23 20:31 | 53.83017 | 0.12249 | 40471 ft | 503 kts | 288° |
| 2026-04-23 20:31 | 53.85405 | 0.01117 | 40476 ft | 503 kts | 288° |
| 2026-04-23 20:32 | 53.87778 | -0.10007 | 40475 ft | 502 kts | 289° |
| 2026-04-23 20:32 | 53.90136 | -0.21119 | 40477 ft | 501 kts | 289° |
| 2026-04-23 20:33 | 53.92473 | -0.32189 | 40476 ft | 500 kts | 289° |
| 2026-04-23 20:33 | 53.94792 | -0.43241 | 40478 ft | 500 kts | 288° |
| 2026-04-23 20:34 | 53.97109 | -0.54340 | 40479 ft | 500 kts | 288° |
| 2026-04-23 20:34 | 53.99422 | -0.65481 | 40476 ft | 500 kts | 288° |
| 2026-04-23 20:35 | 54.01970 | -0.76427 | 40482 ft | 501 kts | 298° |
| 2026-04-23 20:35 | 54.06320 | -0.85592 | 40484 ft | 502 kts | 322° |
| 2026-04-23 20:36 | 54.12146 | -0.92006 | 40480 ft | 503 kts | 328° |
| 2026-04-23 20:36 | 54.18178 | -0.98101 | 40481 ft | 504 kts | 329° |
| 2026-04-23 20:37 | 54.24199 | -1.04158 | 40482 ft | 504 kts | 329° |
| 2026-04-23 20:37 | 54.30236 | -1.10242 | 40480 ft | 502 kts | 329° |
| 2026-04-23 20:38 | 54.36182 | -1.16252 | 40480 ft | 501 kts | 329° |
| 2026-04-23 20:38 | 54.42179 | -1.22332 | 40480 ft | 501 kts | 329° |
| 2026-04-23 20:39 | 54.48175 | -1.28432 | 40481 ft | 501 kts | 329° |
| 2026-04-23 20:39 | 54.54169 | -1.34552 | 40482 ft | 501 kts | 329° |
| 2026-04-23 20:40 | 54.60134 | -1.40663 | 40199 ft | 491 kts | 329° |
| 2026-04-23 20:40 | 54.63005 | -1.43611 | 39300 ft | 484 kts | 329° |
| 2026-04-23 20:40 | 54.65897 | -1.46586 | 38094 ft | 486 kts | 329° |
| 2026-04-23 20:41 | 54.68801 | -1.49579 | 37430 ft | 485 kts | 329° |
| 2026-04-23 20:41 | 54.71668 | -1.52539 | 36760 ft | 484 kts | 328° |
| 2026-04-23 20:41 | 54.74561 | -1.55530 | 36053 ft | 484 kts | 328° |
| 2026-04-23 20:41 | 54.77457 | -1.58529 | 35318 ft | 485 kts | 328° |
| 2026-04-23 20:42 | 54.80358 | -1.61540 | 34499 ft | 489 kts | 328° |
| 2026-04-23 20:42 | 54.83279 | -1.64577 | 33663 ft | 488 kts | 330° |
| 2026-04-23 20:42 | 54.86123 | -1.67538 | 33127 ft | 479 kts | 330° |
| 2026-04-23 20:42 | 54.88982 | -1.70519 | 32200 ft | 480 kts | 330° |
| 2026-04-23 20:43 | 54.91848 | -1.73511 | 31219 ft | 482 kts | 330° |
| 2026-04-23 20:43 | 54.94699 | -1.76494 | 30434 ft | 480 kts | 330° |
| 2026-04-23 20:43 | 54.97541 | -1.79472 | 29720 ft | 474 kts | 330° |
| 2026-04-23 20:43 | 55.00345 | -1.82416 | 29084 ft | 467 kts | 330° |
| 2026-04-23 20:44 | 55.03105 | -1.85319 | 28456 ft | 461 kts | 330° |
| 2026-04-23 20:44 | 55.05815 | -1.88174 | 27851 ft | 456 kts | 330° |
| 2026-04-23 20:44 | 55.08480 | -1.90985 | 27240 ft | 451 kts | 330° |
| 2026-04-23 20:44 | 55.11054 | -1.94068 | 26638 ft | 448 kts | 322° |
| 2026-04-23 20:45 | 55.13161 | -1.98047 | 26071 ft | 447 kts | 307° |
| 2026-04-23 20:45 | 55.14806 | -2.02645 | 25438 ft | 450 kts | 302° |
| 2026-04-23 20:45 | 55.16360 | -2.07390 | 24813 ft | 450 kts | 301° |
| 2026-04-23 20:45 | 55.17904 | -2.12132 | 24199 ft | 447 kts | 301° |
| 2026-04-23 20:46 | 55.19439 | -2.16840 | 23505 ft | 443 kts | 301° |
| 2026-04-23 20:46 | 55.20949 | -2.21465 | 22907 ft | 439 kts | 301° |
| 2026-04-23 20:46 | 55.22454 | -2.26080 | 22288 ft | 435 kts | 301° |
| 2026-04-23 20:46 | 55.23931 | -2.30609 | 21704 ft | 432 kts | 300° |
| 2026-04-23 20:47 | 55.25413 | -2.35157 | 21113 ft | 428 kts | 300° |
| 2026-04-23 20:47 | 55.26879 | -2.39670 | 20520 ft | 424 kts | 300° |
| 2026-04-23 20:47 | 55.28329 | -2.44134 | 19953 ft | 419 kts | 300° |
| 2026-04-23 20:47 | 55.29765 | -2.48565 | 19385 ft | 415 kts | 300° |
| 2026-04-23 20:48 | 55.31182 | -2.52947 | 18815 ft | 412 kts | 299° |
| 2026-04-23 20:48 | 55.32576 | -2.57264 | 18187 ft | 407 kts | 299° |
| 2026-04-23 20:48 | 55.33964 | -2.61573 | 17638 ft | 404 kts | 299° |
| 2026-04-23 20:48 | 55.35337 | -2.65845 | 17071 ft | 401 kts | 299° |
| 2026-04-23 20:49 | 55.36702 | -2.70094 | 16541 ft | 397 kts | 299° |
| 2026-04-23 20:49 | 55.38034 | -2.74249 | 15998 ft | 394 kts | 299° |
| 2026-04-23 20:49 | 55.39372 | -2.78431 | 15474 ft | 390 kts | 299° |
| 2026-04-23 20:49 | 55.40697 | -2.82575 | 14923 ft | 387 kts | 299° |
| 2026-04-23 20:50 | 55.42008 | -2.86688 | 14395 ft | 384 kts | 298° |
| 2026-04-23 20:50 | 55.43287 | -2.90704 | 14044 ft | 372 kts | 298° |
| 2026-04-23 20:50 | 55.44527 | -2.94605 | 13787 ft | 358 kts | 298° |
| 2026-04-23 20:50 | 55.45872 | -2.98198 | 13503 ft | 347 kts | 311° |
| 2026-04-23 20:51 | 55.47790 | -3.00608 | 13264 ft | 336 kts | 336° |
| 2026-04-23 20:51 | 55.49952 | -3.01922 | 12990 ft | 319 kts | 342° |
| 2026-04-23 20:51 | 55.52036 | -3.03014 | 12351 ft | 308 kts | 342° |
| 2026-04-23 20:51 | 55.54042 | -3.04075 | 11662 ft | 302 kts | 342° |
| 2026-04-23 20:52 | 55.56022 | -3.05141 | 11085 ft | 293 kts | 341° |
| 2026-04-23 20:52 | 55.57935 | -3.06186 | 10459 ft | 287 kts | 341° |
| 2026-04-23 20:52 | 55.59806 | -3.07215 | 9999 ft | 276 kts | 341° |
| 2026-04-23 20:52 | 55.61600 | -3.08207 | 9549 ft | 265 kts | 341° |
| 2026-04-23 20:53 | 55.63355 | -3.09183 | 9158 ft | 265 kts | 341° |
| 2026-04-23 20:53 | 55.65113 | -3.10163 | 8769 ft | 264 kts | 341° |
| 2026-04-23 20:53 | 55.66869 | -3.11142 | 8446 ft | 265 kts | 341° |
| 2026-04-23 20:53 | 55.68614 | -3.12119 | 8143 ft | 261 kts | 341° |
| 2026-04-23 20:54 | 55.70318 | -3.13076 | 7877 ft | 260 kts | 341° |
| 2026-04-23 20:54 | 55.71965 | -3.14301 | 7596 ft | 258 kts | 325° |
| 2026-04-23 20:54 | 55.73151 | -3.16607 | 7346 ft | 254 kts | 296° |
| 2026-04-23 20:54 | 55.73603 | -3.19595 | 7015 ft | 252 kts | 274° |
| 2026-04-23 20:55 | 55.73676 | -3.22705 | 6555 ft | 254 kts | 270° |
| 2026-04-23 20:55 | 55.73688 | -3.25849 | 6098 ft | 256 kts | 269° |
| 2026-04-23 20:55 | 55.73694 | -3.28963 | 5641 ft | 249 kts | 269° |
| 2026-04-23 20:55 | 55.73701 | -3.32018 | 5202 ft | 248 kts | 269° |
| 2026-04-23 20:56 | 55.73707 | -3.35080 | 4828 ft | 248 kts | 269° |
| 2026-04-23 20:56 | 55.73715 | -3.38058 | 4523 ft | 245 kts | 269° |
| 2026-04-23 20:56 | 55.73733 | -3.41062 | 4230 ft | 243 kts | 270° |
| 2026-04-23 20:56 | 55.73754 | -3.44049 | 4013 ft | 242 kts | 269° |
| 2026-04-23 20:57 | 55.73768 | -3.47043 | 3980 ft | 243 kts | 269° |
| 2026-04-23 20:57 | 55.73782 | -3.50062 | 3977 ft | 249 kts | 269° |
| 2026-04-23 20:57 | 55.73804 | -3.53169 | 3977 ft | 253 kts | 269° |
| 2026-04-23 20:57 | 55.73824 | -3.56288 | 3979 ft | 253 kts | 269° |
| 2026-04-23 20:58 | 55.73840 | -3.59410 | 3979 ft | 253 kts | 269° |
| 2026-04-23 20:58 | 55.73853 | -3.62500 | 3977 ft | 253 kts | 270° |
| 2026-04-23 20:58 | 55.74211 | -3.65546 | 3976 ft | 255 kts | 295° |
| 2026-04-23 20:58 | 55.75302 | -3.67941 | 3980 ft | 255 kts | 321° |
| 2026-04-23 20:59 | 55.76775 | -3.69705 | 3976 ft | 256 kts | 328° |
| 2026-04-23 20:59 | 55.78306 | -3.71325 | 3975 ft | 257 kts | 329° |
| 2026-04-23 20:59 | 55.79851 | -3.72933 | 3977 ft | 257 kts | 329° |
| 2026-04-23 20:59 | 55.81489 | -3.74160 | 3975 ft | 257 kts | 349° |
| 2026-04-23 21:00 | 55.83179 | -3.73928 | 3974 ft | 232 kts | 24° |
| 2026-04-23 21:00 | 55.84264 | -3.72150 | 3985 ft | 205 kts | 67° |
| 2026-04-23 21:00 | 55.84604 | -3.69888 | 4009 ft | 175 kts | 77° |
| 2026-04-23 21:00 | 55.84928 | -3.67977 | 4077 ft | 149 kts | 73° |
| 2026-04-23 21:01 | 55.85278 | -3.66313 | 3885 ft | 142 kts | 68° |
| 2026-04-23 21:01 | 55.85704 | -3.64741 | 3606 ft | 140 kts | 63° |
| 2026-04-23 21:01 | 55.86178 | -3.63246 | 3360 ft | 138 kts | 62° |
| 2026-04-23 21:01 | 55.86659 | -3.61798 | 3172 ft | 138 kts | 60° |
| 2026-04-23 21:02 | 55.86996 | -3.60811 | 3022 ft | 138 kts | 60° |
| 2026-04-23 21:02 | 55.87646 | -3.58898 | 2805 ft | 137 kts | 61° |
| 2026-04-23 21:02 | 55.88136 | -3.57453 | 2597 ft | 136 kts | 61° |
| 2026-04-23 21:02 | 55.88622 | -3.56022 | 2420 ft | 134 kts | 61° |
| 2026-04-23 21:03 | 55.89103 | -3.54605 | 2235 ft | 133 kts | 61° |
| 2026-04-23 21:03 | 55.89578 | -3.53206 | 2058 ft | 133 kts | 60° |
| 2026-04-23 21:03 | 55.90056 | -3.51800 | 1877 ft | 132 kts | 61° |
| 2026-04-23 21:03 | 55.90369 | -3.50879 | 1762 ft | 131 kts | 61° |
| 2026-04-23 21:04 | 55.90839 | -3.49497 | 1570 ft | 129 kts | 60° |
| 2026-04-23 21:04 | 55.91300 | -3.48141 | 1406 ft | 128 kts | 61° |
| 2026-04-23 21:04 | 55.91761 | -3.46782 | 1236 ft | 128 kts | 60° |
| 2026-04-23 21:04 | 55.92370 | -3.44992 | 951 ft | 127 kts | 60° |
| 2026-04-23 21:05 | 55.92822 | -3.43655 | 736 ft | 125 kts | 59° |
| 2026-04-23 21:05 | 55.93131 | -3.42778 | 590 ft | 125 kts | 58° |
| 2026-04-23 21:05 | 55.93574 | -3.41455 | 455 ft | 125 kts | 59° |
| 2026-04-23 21:05 | 55.94029 | -3.40148 | 273 ft | 126 kts | 59° |
| 2026-04-23 21:06 | 55.94477 | -3.38840 | 148 ft | 121 kts | 62° |
| 2026-04-23 21:06 | 55.94858 | -3.37664 | 117 ft | 90 kts | 59° |
| 2026-04-23 21:06 | 55.95044 | -3.37116 | 114 ft | 29 kts | 59° |
| 2026-04-23 21:06 | 55.95210 | -3.36631 | 116 ft | 43 kts | 58° |
| 2026-04-23 21:07 | 55.95244 | -3.36449 | 116 ft | 15 kts | 107° |
| 2026-04-23 21:07 | 55.95216 | -3.36386 | 115 ft | 0 kts | 139° |
| 2026-04-23 21:08 | 55.95212 | -3.36378 | 116 ft | 7 kts | 139° |
| 2026-04-23 21:08 | 55.95194 | -3.36351 | 118 ft | 0 kts | 139° |
| 2026-04-23 21:08 | 55.95181 | -3.36336 | 117 ft | 14 kts | 149° |
| 2026-04-23 21:08 | 55.95084 | -3.36431 | 117 ft | 19 kts | 236° |
| 2026-04-23 21:09 | 55.95010 | -3.36646 | 119 ft | 22 kts | 239° |
| 2026-04-23 21:09 | 55.94926 | -3.36806 | 117 ft | 16 kts | 178° |
| 2026-04-23 21:09 | 55.94879 | -3.36791 | 119 ft | 0 kts | 171° |
| 2026-04-23 21:09 | 55.94859 | -3.36782 | 120 ft | 7 kts | 160° |
| 2026-04-23 21:10 | 55.94824 | -3.36712 | 117 ft | 9 kts | 120° |
| 2026-04-23 21:10 | 55.94812 | -3.36674 | 118 ft | 0 kts | 118° |
| 2026-04-23 21:10 | 55.94803 | -3.36644 | 118 ft | 0 kts | 118° |
| 2026-04-23 21:10 | 55.94799 | -3.36630 | 120 ft | 0 kts | 117° |